sensor_id;sensor_type;location;lat;lon;timestamp;pressure;altitude;pressure_sealevel;temperature;humidity
48964;BME280;34776;48.180;16.420;2023-05-11T00:00:12;99693.41;;;16.09;45.17
48964;BME280;34776;48.180;16.420;2023-05-11T00:02:38;99687.41;;;16.05;45.22
48964;BME280;34776;48.180;16.420;2023-05-11T00:05:03;99686.66;;;16.03;45.35
48964;BME280;34776;48.180;16.420;2023-05-11T00:07:28;99684.56;;;15.95;45.79
48964;BME280;34776;48.180;16.420;2023-05-11T00:09:54;99680.19;;;15.94;45.84
48964;BME280;34776;48.180;16.420;2023-05-11T00:12:19;99685.91;;;15.90;45.39
48964;BME280;34776;48.180;16.420;2023-05-11T00:14:45;99684.19;;;15.89;45.80
48964;BME280;34776;48.180;16.420;2023-05-11T00:17:10;99686.75;;;15.90;45.70
48964;BME280;34776;48.180;16.420;2023-05-11T00:19:37;99693.81;;;15.91;45.62
48964;BME280;34776;48.180;16.420;2023-05-11T00:22:02;99684.44;;;15.86;45.78
48964;BME280;34776;48.180;16.420;2023-05-11T00:24:29;99688.06;;;15.85;46.12
48964;BME280;34776;48.180;16.420;2023-05-11T00:26:54;99691.94;;;15.80;46.10
48964;BME280;34776;48.180;16.420;2023-05-11T00:29:20;99688.13;;;15.72;46.14
48964;BME280;34776;48.180;16.420;2023-05-11T00:31:46;99686.41;;;15.71;46.25
48964;BME280;34776;48.180;16.420;2023-05-11T00:34:16;99689.28;;;15.68;46.15
48964;BME280;34776;48.180;16.420;2023-05-11T00:36:42;99682.78;;;15.72;46.17
48964;BME280;34776;48.180;16.420;2023-05-11T00:39:08;99691.53;;;15.74;46.40
48964;BME280;34776;48.180;16.420;2023-05-11T00:41:34;99690.88;;;15.70;46.71
48964;BME280;34776;48.180;16.420;2023-05-11T00:43:59;99687.59;;;15.67;46.61
48964;BME280;34776;48.180;16.420;2023-05-11T00:46:25;99691.97;;;15.68;46.42
48964;BME280;34776;48.180;16.420;2023-05-11T00:48:51;99691.00;;;15.69;46.40
48964;BME280;34776;48.180;16.420;2023-05-11T00:51:17;99693.69;;;15.69;46.40
48964;BME280;34776;48.180;16.420;2023-05-11T00:53:42;99694.66;;;15.68;46.43
48964;BME280;34776;48.180;16.420;2023-05-11T00:56:08;99695.38;;;15.70;46.53
48964;BME280;34776;48.180;16.420;2023-05-11T00:58:34;99695.38;;;15.70;46.52
48964;BME280;34776;48.180;16.420;2023-05-11T01:00:59;99698.84;;;15.72;46.77
48964;BME280;34776;48.180;16.420;2023-05-11T01:03:25;99700.56;;;15.73;46.95
48964;BME280;34776;48.180;16.420;2023-05-11T01:06:06;99694.44;;;15.71;47.27
48964;BME280;34776;48.180;16.420;2023-05-11T01:08:41;99692.72;;;15.70;47.14
48964;BME280;34776;48.180;16.420;2023-05-11T01:11:27;99697.31;;;15.68;47.17
48964;BME280;34776;48.180;16.420;2023-05-11T01:14:28;99695.63;;;15.67;47.25
48964;BME280;34776;48.180;16.420;2023-05-11T01:17:04;99697.31;;;15.68;46.86
48964;BME280;34776;48.180;16.420;2023-05-11T01:19:41;99692.81;;;15.68;46.93
48964;BME280;34776;48.180;16.420;2023-05-11T01:30:42;99692.88;;;15.55;47.80
48964;BME280;34776;48.180;16.420;2023-05-11T01:33:11;99691.63;;;15.48;47.46
48964;BME280;34776;48.180;16.420;2023-05-11T01:35:42;99691.84;;;15.45;47.90
48964;BME280;34776;48.180;16.420;2023-05-11T01:38:12;99690.16;;;15.44;47.91
48964;BME280;34776;48.180;16.420;2023-05-11T01:40:40;99695.84;;;15.39;47.90
48964;BME280;34776;48.180;16.420;2023-05-11T01:43:08;99688.88;;;15.37;48.20
48964;BME280;34776;48.180;16.420;2023-05-11T01:45:44;99693.47;;;15.35;48.17
48964;BME280;34776;48.180;16.420;2023-05-11T01:48:15;99690.06;;;15.33;48.25
48964;BME280;34776;48.180;16.420;2023-05-11T01:50:42;99694.22;;;15.37;48.12
48964;BME280;34776;48.180;16.420;2023-05-11T01:53:09;99694.22;;;15.37;48.24
48964;BME280;34776;48.180;16.420;2023-05-11T01:55:35;99700.91;;;15.31;48.28
48964;BME280;34776;48.180;16.420;2023-05-11T01:58:03;99690.19;;;15.31;48.28
48964;BME280;34776;48.180;16.420;2023-05-11T02:00:30;99697.13;;;15.34;48.49
48964;BME280;34776;48.180;16.420;2023-05-11T02:02:57;99697.97;;;15.34;48.40
48964;BME280;34776;48.180;16.420;2023-05-11T02:05:25;99694.56;;;15.32;48.68
48964;BME280;34776;48.180;16.420;2023-05-11T02:07:54;99692.22;;;15.28;48.87
48964;BME280;34776;48.180;16.420;2023-05-11T02:10:24;99700.50;;;15.25;48.91
48964;BME280;34776;48.180;16.420;2023-05-11T02:12:51;99697.81;;;15.25;48.86
48964;BME280;34776;48.180;16.420;2023-05-11T02:15:19;99700.50;;;15.25;49.19
48964;BME280;34776;48.180;16.420;2023-05-11T02:17:45;99695.16;;;15.25;49.38
48964;BME280;34776;48.180;16.420;2023-05-11T02:20:11;99702.53;;;15.21;49.09
48964;BME280;34776;48.180;16.420;2023-05-11T02:22:38;99708.22;;;15.16;49.31
48964;BME280;34776;48.180;16.420;2023-05-11T02:25:06;99709.28;;;15.14;49.71
48964;BME280;34776;48.180;16.420;2023-05-11T02:27:32;99699.25;;;15.05;49.54
48964;BME280;34776;48.180;16.420;2023-05-11T02:30:00;99707.59;;;15.00;49.78
48964;BME280;34776;48.180;16.420;2023-05-11T02:32:26;99709.53;;;14.98;49.77
48964;BME280;34776;48.180;16.420;2023-05-11T02:34:59;99700.66;;;14.97;50.22
48964;BME280;34776;48.180;16.420;2023-05-11T02:37:26;99698.59;;;15.01;50.17
48964;BME280;34776;48.180;16.420;2023-05-11T02:39:57;99705.69;;;15.02;49.93
48964;BME280;34776;48.180;16.420;2023-05-11T02:42:26;99706.84;;;14.98;50.26
48964;BME280;34776;48.180;16.420;2023-05-11T02:45:04;99706.75;;;14.99;50.25
48964;BME280;34776;48.180;16.420;2023-05-11T02:47:44;99709.31;;;15.01;50.53
48964;BME280;34776;48.180;16.420;2023-05-11T02:50:11;99705.13;;;14.97;50.27
48964;BME280;34776;48.180;16.420;2023-05-11T02:52:42;99706.13;;;14.96;50.20
48964;BME280;34776;48.180;16.420;2023-05-11T02:55:09;99705.88;;;14.99;50.15
48964;BME280;34776;48.180;16.420;2023-05-11T02:57:37;99703.09;;;15.00;50.58
48964;BME280;34776;48.180;16.420;2023-05-11T03:00:03;99707.59;;;15.00;50.63
48964;BME280;34776;48.180;16.420;2023-05-11T03:02:29;99709.88;;;14.93;50.76
48964;BME280;34776;48.180;16.420;2023-05-11T03:04:54;99709.47;;;14.87;50.88
48964;BME280;34776;48.180;16.420;2023-05-11T03:07:19;99711.47;;;14.83;51.17
48964;BME280;34776;48.180;16.420;2023-05-11T03:09:45;99704.31;;;14.84;51.01
48964;BME280;34776;48.180;16.420;2023-05-11T03:12:10;99708.72;;;14.85;51.01
48964;BME280;34776;48.180;16.420;2023-05-11T03:14:37;99708.56;;;14.86;50.87
48964;BME280;34776;48.180;16.420;2023-05-11T03:17:03;99705.81;;;14.88;50.91
48964;BME280;34776;48.180;16.420;2023-05-11T03:19:30;99701.19;;;14.90;51.05
48964;BME280;34776;48.180;16.420;2023-05-11T03:21:57;99702.03;;;14.90;51.02
48964;BME280;34776;48.180;16.420;2023-05-11T03:24:24;99700.13;;;14.92;50.79
48964;BME280;34776;48.180;16.420;2023-05-11T03:26:51;99699.28;;;14.92;50.96
48964;BME280;34776;48.180;16.420;2023-05-11T03:29:18;99700.97;;;14.93;50.92
48964;BME280;34776;48.180;16.420;2023-05-11T03:31:44;99695.09;;;14.88;51.07
48964;BME280;34776;48.180;16.420;2023-05-11T03:34:10;99694.59;;;14.82;51.11
48964;BME280;34776;48.180;16.420;2023-05-11T03:36:35;99693.59;;;14.84;50.80
48964;BME280;34776;48.180;16.420;2023-05-11T03:39:03;99690.94;;;14.84;50.94
48964;BME280;34776;48.180;16.420;2023-05-11T03:41:30;99688.25;;;14.84;51.09
48964;BME280;34776;48.180;16.420;2023-05-11T03:43:57;99695.84;;;14.90;50.79
48964;BME280;34776;48.180;16.420;2023-05-11T03:46:24;99691.25;;;14.92;50.94
48964;BME280;34776;48.180;16.420;2023-05-11T03:48:51;99688.47;;;14.93;50.69
48964;BME280;34776;48.180;16.420;2023-05-11T03:51:18;99693.69;;;14.95;50.92
48964;BME280;34776;48.180;16.420;2023-05-11T03:53:44;99693.47;;;14.98;50.83
48964;BME280;34776;48.180;16.420;2023-05-11T03:56:10;99696.47;;;15.06;50.93
48964;BME280;34776;48.180;16.420;2023-05-11T03:58:39;99693.97;;;15.16;50.63
48964;BME280;34776;48.180;16.420;2023-05-11T04:01:05;99696.84;;;15.26;50.64
48964;BME280;34776;48.180;16.420;2023-05-11T04:03:31;99692.53;;;15.36;50.46
48964;BME280;34776;48.180;16.420;2023-05-11T04:05:56;99698.38;;;15.41;50.56
48964;BME280;34776;48.180;16.420;2023-05-11T04:08:21;99698.69;;;15.49;50.45
48964;BME280;34776;48.180;16.420;2023-05-11T04:10:47;99703.38;;;15.58;50.34
48964;BME280;34776;48.180;16.420;2023-05-11T04:13:12;99704.63;;;15.66;50.25
48964;BME280;34776;48.180;16.420;2023-05-11T04:15:37;99701.00;;;15.67;50.00
48964;BME280;34776;48.180;16.420;2023-05-11T04:18:03;99700.56;;;15.73;49.86
48964;BME280;34776;48.180;16.420;2023-05-11T04:20:28;99705.56;;;15.77;49.92
48964;BME280;34776;48.180;16.420;2023-05-11T04:22:54;99704.59;;;15.78;49.91
48964;BME280;34776;48.180;16.420;2023-05-11T04:25:19;99710.78;;;15.79;49.88
48964;BME280;34776;48.180;16.420;2023-05-11T04:27:45;99702.00;;;15.77;49.96
48964;BME280;34776;48.180;16.420;2023-05-11T04:30:10;99713.81;;;15.74;49.80
48964;BME280;34776;48.180;16.420;2023-05-11T04:32:36;99708.47;;;15.74;50.45
48964;BME280;34776;48.180;16.420;2023-05-11T04:35:01;99715.31;;;15.78;49.95
48964;BME280;34776;48.180;16.420;2023-05-11T04:37:26;99719.56;;;15.81;49.77
48964;BME280;34776;48.180;16.420;2023-05-11T04:39:52;99714.75;;;15.86;49.81
48964;BME280;34776;48.180;16.420;2023-05-11T04:42:17;99716.44;;;15.87;49.72
48964;BME280;34776;48.180;16.420;2023-05-11T04:44:42;99714.28;;;15.92;49.77
48964;BME280;34776;48.180;16.420;2023-05-11T04:47:08;99719.41;;;15.95;49.53
48964;BME280;34776;48.180;16.420;2023-05-11T04:49:33;99720.13;;;15.97;49.31
48964;BME280;34776;48.180;16.420;2023-05-11T04:51:59;99713.69;;;16.00;49.46
48964;BME280;34776;48.180;16.420;2023-05-11T04:54:24;99715.06;;;16.06;49.33
48964;BME280;34776;48.180;16.420;2023-05-11T04:56:49;99717.16;;;16.13;49.26
48964;BME280;34776;48.180;16.420;2023-05-11T04:59:15;99718.03;;;16.25;48.80
48964;BME280;34776;48.180;16.420;2023-05-11T05:01:40;99719.94;;;16.36;48.65
48964;BME280;34776;48.180;16.420;2023-05-11T05:04:05;99720.03;;;16.46;48.70
48964;BME280;34776;48.180;16.420;2023-05-11T05:06:31;99727.88;;;16.49;48.38
48964;BME280;34776;48.180;16.420;2023-05-11T05:08:57;99722.38;;;16.50;48.31
48964;BME280;34776;48.180;16.420;2023-05-11T05:11:22;99730.09;;;16.55;48.32
48964;BME280;34776;48.180;16.420;2023-05-11T05:13:48;99724.47;;;16.58;48.50
48964;BME280;34776;48.180;16.420;2023-05-11T05:16:14;99728.78;;;16.72;48.25
48964;BME280;34776;48.180;16.420;2023-05-11T05:18:39;99726.75;;;16.87;47.76
48964;BME280;34776;48.180;16.420;2023-05-11T05:21:05;99730.63;;;16.94;47.69
48964;BME280;34776;48.180;16.420;2023-05-11T05:23:30;99724.91;;;16.87;47.72
48964;BME280;34776;48.180;16.420;2023-05-11T05:25:56;99728.44;;;16.88;47.76
48964;BME280;34776;48.180;16.420;2023-05-11T05:28:21;99731.13;;;16.88;47.99
48964;BME280;34776;48.180;16.420;2023-05-11T05:30:46;99730.88;;;17.02;47.91
48964;BME280;34776;48.180;16.420;2023-05-11T05:33:12;99746.50;;;17.19;47.57
48964;BME280;34776;48.180;16.420;2023-05-11T05:35:37;99740.63;;;17.37;46.89
48964;BME280;34776;48.180;16.420;2023-05-11T05:38:02;99738.41;;;17.42;46.85
48964;BME280;34776;48.180;16.420;2023-05-11T05:40:28;99742.56;;;17.46;46.87
48964;BME280;34776;48.180;16.420;2023-05-11T05:42:53;99747.44;;;17.52;46.36
48964;BME280;34776;48.180;16.420;2023-05-11T05:45:19;99742.69;;;17.56;46.50
48964;BME280;34776;48.180;16.420;2023-05-11T05:47:44;99741.41;;;17.71;46.24
48964;BME280;34776;48.180;16.420;2023-05-11T05:50:09;99741.53;;;17.81;45.80
48964;BME280;34776;48.180;16.420;2023-05-11T05:52:35;99753.88;;;17.83;45.94
48964;BME280;34776;48.180;16.420;2023-05-11T05:55:01;99747.59;;;17.94;45.58
48964;BME280;34776;48.180;16.420;2023-05-11T05:57:26;99751.13;;;18.06;45.18
48964;BME280;34776;48.180;16.420;2023-05-11T05:59:54;99750.00;;;18.09;45.03
48964;BME280;34776;48.180;16.420;2023-05-11T06:02:20;99752.03;;;18.16;44.96
48964;BME280;34776;48.180;16.420;2023-05-11T06:04:45;99758.63;;;18.23;44.59
48964;BME280;34776;48.180;16.420;2023-05-11T06:07:11;99756.13;;;18.32;44.35
48964;BME280;34776;48.180;16.420;2023-05-11T06:09:38;99761.56;;;18.41;44.32
48964;BME280;34776;48.180;16.420;2023-05-11T06:12:03;99760.28;;;18.57;43.77
48964;BME280;34776;48.180;16.420;2023-05-11T06:14:30;99754.38;;;18.63;43.38
48964;BME280;34776;48.180;16.420;2023-05-11T06:16:55;99753.16;;;18.88;43.24
48964;BME280;34776;48.180;16.420;2023-05-11T06:19:21;99747.34;;;19.23;42.80
48964;BME280;34776;48.180;16.420;2023-05-11T06:21:46;99755.75;;;19.71;42.04
48964;BME280;34776;48.180;16.420;2023-05-11T06:24:12;99755.44;;;20.81;39.93
48964;BME280;34776;48.180;16.420;2023-05-11T06:26:38;99759.84;;;22.02;38.59
48964;BME280;34776;48.180;16.420;2023-05-11T06:29:05;99756.81;;;22.77;36.20
48964;BME280;34776;48.180;16.420;2023-05-11T06:31:30;99755.84;;;22.86;35.89
48964;BME280;34776;48.180;16.420;2023-05-11T06:33:55;99756.81;;;23.29;35.63
48964;BME280;34776;48.180;16.420;2023-05-11T06:36:21;99759.03;;;23.34;34.52
48964;BME280;34776;48.180;16.420;2023-05-11T06:38:46;99762.75;;;22.81;35.56
48964;BME280;34776;48.180;16.420;2023-05-11T06:41:11;99753.41;;;22.75;35.64
48964;BME280;34776;48.180;16.420;2023-05-11T06:43:37;99762.78;;;22.63;35.46
48964;BME280;34776;48.180;16.420;2023-05-11T06:46:03;99756.81;;;22.51;35.87
48964;BME280;34776;48.180;16.420;2023-05-11T06:48:28;99761.44;;;22.41;35.25
48964;BME280;34776;48.180;16.420;2023-05-11T06:50:55;99769.13;;;22.00;35.90
48964;BME280;34776;48.180;16.420;2023-05-11T07:01:04;99766.63;;;22.34;35.73
48964;BME280;34776;48.180;16.420;2023-05-11T07:03:32;99753.84;;;22.44;35.67
48964;BME280;34776;48.180;16.420;2023-05-11T07:05:58;99754.19;;;22.67;35.19
48964;BME280;34776;48.180;16.420;2023-05-11T07:08:23;99747.41;;;22.89;34.41
48964;BME280;34776;48.180;16.420;2023-05-11T07:10:48;99749.28;;;22.89;34.56
48964;BME280;34776;48.180;16.420;2023-05-11T07:13:14;99745.44;;;23.26;33.84
48964;BME280;34776;48.180;16.420;2023-05-11T07:15:39;99736.81;;;23.30;33.78
48964;BME280;34776;48.180;16.420;2023-05-11T07:18:05;99749.63;;;23.12;33.60
48964;BME280;34776;48.180;16.420;2023-05-11T07:20:32;99746.91;;;23.20;34.03
48964;BME280;34776;48.180;16.420;2023-05-11T07:22:57;99742.94;;;23.41;33.43
48964;BME280;34776;48.180;16.420;2023-05-11T07:27:58;99745.22;;;24.04;31.73
48964;BME280;34776;48.180;16.420;2023-05-11T07:30:23;99750.28;;;24.07;33.02
48964;BME280;34776;48.180;16.420;2023-05-11T07:32:49;99739.16;;;25.16;31.89
48964;BME280;34776;48.180;16.420;2023-05-11T07:35:38;99737.25;;;26.87;28.95
48964;BME280;34776;48.180;16.420;2023-05-11T07:38:03;99742.34;;;27.50;28.98
48964;BME280;34776;48.180;16.420;2023-05-11T07:40:31;99740.34;;;28.53;27.40
48964;BME280;34776;48.180;16.420;2023-05-11T07:42:58;99738.38;;;29.73;26.14
48964;BME280;34776;48.180;16.420;2023-05-11T07:45:23;99737.00;;;30.04;25.67
48964;BME280;34776;48.180;16.420;2023-05-11T07:47:49;99743.09;;;29.92;25.57
48964;BME280;34776;48.180;16.420;2023-05-11T07:50:14;99739.53;;;30.19;25.38
48964;BME280;34776;48.180;16.420;2023-05-11T07:57:51;99729.44;;;31.12;24.24
48964;BME280;34776;48.180;16.420;2023-05-11T08:00:18;99734.97;;;30.46;24.84
48964;BME280;34776;48.180;16.420;2023-05-11T08:02:43;99735.56;;;29.60;25.73
48964;BME280;34776;48.180;16.420;2023-05-11T08:05:09;99735.19;;;28.93;26.32
48964;BME280;34776;48.180;16.420;2023-05-11T08:07:34;99736.91;;;29.01;26.53
48964;BME280;34776;48.180;16.420;2023-05-11T08:09:59;99732.25;;;28.94;26.15
48964;BME280;34776;48.180;16.420;2023-05-11T08:12:25;99739.41;;;28.46;26.77
48964;BME280;34776;48.180;16.420;2023-05-11T08:14:50;99728.53;;;28.74;25.93
48964;BME280;34776;48.180;16.420;2023-05-11T08:17:15;99731.28;;;29.09;25.92
48964;BME280;34776;48.180;16.420;2023-05-11T08:19:41;99731.75;;;29.54;25.57
48964;BME280;34776;48.180;16.420;2023-05-11T08:22:06;99729.69;;;30.31;24.73
48964;BME280;34776;48.180;16.420;2023-05-11T08:24:31;99731.59;;;30.77;23.93
48964;BME280;34776;48.180;16.420;2023-05-11T08:26:57;99740.38;;;30.06;24.64
48964;BME280;34776;48.180;16.420;2023-05-11T08:29:23;99730.09;;;29.66;25.23
48964;BME280;34776;48.180;16.420;2023-05-11T08:31:52;99737.50;;;29.24;25.53
48964;BME280;34776;48.180;16.420;2023-05-11T08:34:17;99730.28;;;29.17;25.38
48964;BME280;34776;48.180;16.420;2023-05-11T08:36:43;99732.50;;;29.34;25.56
48964;BME280;34776;48.180;16.420;2023-05-11T08:39:08;99724.81;;;29.17;25.42
48964;BME280;34776;48.180;16.420;2023-05-11T08:41:34;99730.53;;;28.93;25.59
48964;BME280;34776;48.180;16.420;2023-05-11T08:44:00;99732.72;;;29.05;25.47
48964;BME280;34776;48.180;16.420;2023-05-11T08:46:28;99724.28;;;29.34;25.26
48964;BME280;34776;48.180;16.420;2023-05-11T08:48:54;99721.38;;;29.91;24.73
48964;BME280;34776;48.180;16.420;2023-05-11T08:51:21;99722.72;;;30.48;23.58
48964;BME280;34776;48.180;16.420;2023-05-11T08:53:47;99717.41;;;30.27;23.65
48964;BME280;34776;48.180;16.420;2023-05-11T08:56:14;99716.78;;;30.11;23.96
48964;BME280;34776;48.180;16.420;2023-05-11T08:58:40;99703.91;;;29.44;23.99
48964;BME280;34776;48.180;16.420;2023-05-11T09:01:09;99697.06;;;28.13;25.76
48964;BME280;34776;48.180;16.420;2023-05-11T09:03:35;99707.06;;;27.04;26.68
48964;BME280;34776;48.180;16.420;2023-05-11T09:06:02;99709.78;;;26.36;27.82
48964;BME280;34776;48.180;16.420;2023-05-11T09:08:30;99711.69;;;25.81;27.93
48964;BME280;34776;48.180;16.420;2023-05-11T09:10:57;99695.88;;;25.06;28.67
48964;BME280;34776;48.180;16.420;2023-05-11T09:35:04;99691.56;;;24.80;27.95
48964;BME280;34776;48.180;16.420;2023-05-11T09:40:27;99688.69;;;24.65;28.06
48964;BME280;34776;48.180;16.420;2023-05-11T09:42:53;99707.53;;;24.59;28.18
48964;BME280;34776;48.180;16.420;2023-05-11T09:45:39;99698.16;;;24.78;27.66
48964;BME280;34776;48.180;16.420;2023-05-11T09:48:06;99703.75;;;24.92;28.03
48964;BME280;34776;48.180;16.420;2023-05-11T09:50:33;99705.44;;;24.85;27.71
48964;BME280;34776;48.180;16.420;2023-05-11T10:00:52;99685.47;;;24.45;28.61
48964;BME280;34776;48.180;16.420;2023-05-11T10:03:18;99682.69;;;24.86;28.16
48964;BME280;34776;48.180;16.420;2023-05-11T10:05:58;99678.28;;;24.85;27.63
48964;BME280;34776;48.180;16.420;2023-05-11T10:08:29;99674.47;;;25.03;28.24
48964;BME280;34776;48.180;16.420;2023-05-11T10:10:55;99673.06;;;25.15;27.87
48964;BME280;34776;48.180;16.420;2023-05-11T10:13:22;99676.25;;;25.66;27.66
48964;BME280;34776;48.180;16.420;2023-05-11T10:15:50;99661.25;;;25.70;27.49
48964;BME280;34776;48.180;16.420;2023-05-11T10:18:16;99665.19;;;25.60;27.42
48964;BME280;34776;48.180;16.420;2023-05-11T10:20:41;99660.81;;;25.59;27.57
48964;BME280;34776;48.180;16.420;2023-05-11T10:23:09;99655.63;;;25.41;27.27
48964;BME280;34776;48.180;16.420;2023-05-11T10:25:35;99670.91;;;25.50;27.51
48964;BME280;34776;48.180;16.420;2023-05-11T10:28:01;99660.63;;;25.60;27.25
48964;BME280;34776;48.180;16.420;2023-05-11T10:30:26;99651.31;;;25.78;27.40
48964;BME280;34776;48.180;16.420;2023-05-11T10:32:52;99654.81;;;25.63;27.21
48964;BME280;34776;48.180;16.420;2023-05-11T10:35:21;99650.34;;;25.47;27.63
48964;BME280;34776;48.180;16.420;2023-05-11T10:37:47;99657.16;;;25.04;28.15
48964;BME280;34776;48.180;16.420;2023-05-11T10:40:12;99657.94;;;24.65;28.64
48964;BME280;34776;48.180;16.420;2023-05-11T10:51:12;99641.38;;;23.78;29.98
48964;BME280;34776;48.180;16.420;2023-05-11T10:53:57;99642.91;;;24.13;29.83
48964;BME280;34776;48.180;16.420;2023-05-11T10:56:43;99638.97;;;24.40;29.41
48964;BME280;34776;48.180;16.420;2023-05-11T11:01:49;99638.63;;;24.35;29.48
48964;BME280;34776;48.180;16.420;2023-05-11T11:04:16;99633.56;;;24.16;29.38
48964;BME280;34776;48.180;16.420;2023-05-11T11:09:19;99628.44;;;23.71;29.72
48964;BME280;34776;48.180;16.420;2023-05-11T11:11:46;99631.78;;;23.49;30.24
48964;BME280;34776;48.180;16.420;2023-05-11T11:14:17;99627.72;;;23.45;30.25
48964;BME280;34776;48.180;16.420;2023-05-11T11:19:39;99618.97;;;23.08;30.42
48964;BME280;34776;48.180;16.420;2023-05-11T11:22:05;99619.69;;;23.19;30.33
48964;BME280;34776;48.180;16.420;2023-05-11T11:24:50;99613.63;;;23.41;30.45
48964;BME280;34776;48.180;16.420;2023-05-11T11:27:16;99615.53;;;23.65;30.02
48964;BME280;34776;48.180;16.420;2023-05-11T11:34:51;99611.44;;;23.45;29.66
48964;BME280;34776;48.180;16.420;2023-05-11T11:37:17;99614.47;;;23.25;29.84
48964;BME280;34776;48.180;16.420;2023-05-11T11:39:46;99609.06;;;23.42;29.47
48964;BME280;34776;48.180;16.420;2023-05-11T11:42:14;99609.78;;;23.68;29.41
48964;BME280;34776;48.180;16.420;2023-05-11T11:44:42;99609.50;;;23.88;29.42
48964;BME280;34776;48.180;16.420;2023-05-11T11:47:20;99604.38;;;24.18;29.03
48964;BME280;34776;48.180;16.420;2023-05-11T11:49:48;99600.28;;;24.30;28.66
48964;BME280;34776;48.180;16.420;2023-05-11T11:54:53;99603.34;;;24.19;28.67
48964;BME280;34776;48.180;16.420;2023-05-11T11:57:45;99610.81;;;24.08;28.02
48964;BME280;34776;48.180;16.420;2023-05-11T12:00:19;99611.16;;;24.30;28.59
48964;BME280;34776;48.180;16.420;2023-05-11T12:02:45;99599.91;;;24.41;28.42
48964;BME280;34776;48.180;16.420;2023-05-11T12:05:12;99595.84;;;24.29;28.36
48964;BME280;34776;48.180;16.420;2023-05-11T12:07:43;99594.72;;;24.15;28.46
48964;BME280;34776;48.180;16.420;2023-05-11T12:10:11;99594.03;;;24.21;28.47
48964;BME280;34776;48.180;16.420;2023-05-11T12:12:37;99593.78;;;24.47;28.12
48964;BME280;34776;48.180;16.420;2023-05-11T12:15:04;99592.84;;;24.80;27.97
48964;BME280;34776;48.180;16.420;2023-05-11T12:17:31;99587.25;;;24.81;27.77
48964;BME280;34776;48.180;16.420;2023-05-11T12:20:15;99586.63;;;24.63;26.93
48964;BME280;34776;48.180;16.420;2023-05-11T12:22:42;99585.97;;;24.52;27.80
48964;BME280;34776;48.180;16.420;2023-05-11T12:25:09;99587.00;;;24.43;27.62
48964;BME280;34776;48.180;16.420;2023-05-11T12:27:54;99577.53;;;24.23;27.58
48964;BME280;34776;48.180;16.420;2023-05-11T12:30:24;99588.41;;;24.15;27.60
48964;BME280;34776;48.180;16.420;2023-05-11T12:32:50;99576.25;;;24.02;27.85
48964;BME280;34776;48.180;16.420;2023-05-11T12:35:22;99572.47;;;24.11;27.17
48964;BME280;34776;48.180;16.420;2023-05-11T12:37:48;99569.91;;;24.26;27.80
48964;BME280;34776;48.180;16.420;2023-05-11T12:40:14;99569.72;;;24.36;27.94
48964;BME280;34776;48.180;16.420;2023-05-11T12:42:51;99569.06;;;24.34;28.07
48964;BME280;34776;48.180;16.420;2023-05-11T12:45:18;99567.47;;;24.48;27.80
48964;BME280;34776;48.180;16.420;2023-05-11T12:47:46;99562.91;;;24.48;27.88
48964;BME280;34776;48.180;16.420;2023-05-11T12:50:12;99561.72;;;24.51;27.99
48964;BME280;34776;48.180;16.420;2023-05-11T12:52:37;99561.03;;;24.57;28.12
48964;BME280;34776;48.180;16.420;2023-05-11T12:55:03;99558.13;;;24.59;28.08
48964;BME280;34776;48.180;16.420;2023-05-11T12:57:29;99555.13;;;24.85;28.09
48964;BME280;34776;48.180;16.420;2023-05-11T13:00:08;99554.84;;;25.03;27.64
48964;BME280;34776;48.180;16.420;2023-05-11T14:04:50;99511.09;;;23.45;28.40
48964;BME280;34776;48.180;16.420;2023-05-11T14:23:42;99518.56;;;23.76;27.98
48964;BME280;34776;48.180;16.420;2023-05-11T14:26:08;99507.03;;;23.65;27.86
48964;BME280;34776;48.180;16.420;2023-05-11T14:28:33;99500.25;;;23.61;27.94
48964;BME280;34776;48.180;16.420;2023-05-11T14:30:59;99490.75;;;23.33;28.02
48964;BME280;34776;48.180;16.420;2023-05-11T14:33:24;99486.69;;;23.20;28.36
48964;BME280;34776;48.180;16.420;2023-05-11T14:35:50;99494.47;;;23.15;28.10
48964;BME280;34776;48.180;16.420;2023-05-11T14:38:16;99499.56;;;23.02;28.52
48964;BME280;34776;48.180;16.420;2023-05-11T14:40:42;99499.22;;;23.05;28.47
48964;BME280;34776;48.180;16.420;2023-05-11T14:43:07;99490.25;;;23.13;28.45
48964;BME280;34776;48.180;16.420;2023-05-11T14:45:33;99490.59;;;23.18;28.40
48964;BME280;34776;48.180;16.420;2023-05-11T14:47:59;99488.22;;;23.15;28.36
48964;BME280;34776;48.180;16.420;2023-05-11T14:50:25;99492.38;;;22.93;28.43
48964;BME280;34776;48.180;16.420;2023-05-11T14:52:50;99496.13;;;22.92;28.40
48964;BME280;34776;48.180;16.420;2023-05-11T14:57:52;99495.06;;;22.84;28.39
48964;BME280;34776;48.180;16.420;2023-05-11T15:02:52;99483.22;;;22.77;28.10
48964;BME280;34776;48.180;16.420;2023-05-11T15:05:18;99496.34;;;23.06;28.22
48964;BME280;34776;48.180;16.420;2023-05-11T15:07:43;99482.28;;;23.11;28.00
48964;BME280;34776;48.180;16.420;2023-05-11T15:10:08;99484.66;;;23.06;28.42
48964;BME280;34776;48.180;16.420;2023-05-11T15:12:35;99491.03;;;22.97;28.03
48964;BME280;34776;48.180;16.420;2023-05-11T15:15:00;99489.34;;;22.96;28.30
48964;BME280;34776;48.180;16.420;2023-05-11T15:17:26;99488.50;;;22.95;28.23
48964;BME280;34776;48.180;16.420;2023-05-11T15:19:51;99493.72;;;22.88;28.62
48964;BME280;34776;48.180;16.420;2023-05-11T15:22:16;99494.75;;;22.87;28.56
48964;BME280;34776;48.180;16.420;2023-05-11T15:24:43;99490.00;;;22.89;28.65
48964;BME280;34776;48.180;16.420;2023-05-11T15:27:08;99485.97;;;22.94;28.77
48964;BME280;34776;48.180;16.420;2023-05-11T15:34:38;99493.88;;;22.79;28.93
48964;BME280;34776;48.180;16.420;2023-05-11T15:37:03;99493.19;;;22.68;29.18
48964;BME280;34776;48.180;16.420;2023-05-11T15:39:29;99495.66;;;22.54;29.25